Amarillo, TX (79101)

12:19 PM CST on November 23, 2017 (GMT -0600)
Plemons-Eakle | | Change Station

Elev 3678 ft 35.19 °N, 101.84 °W | Updated 1 second ago

Partly Cloudy
Partly Cloudy
68.4 °F
Feels Like 68.4 °F
N
0.0
Wind Variable Wind from North
Gusts 9.2 mph

Today
High -- | Low -- °F
--% Chance of Precip.
Yesterday
High -- | Low -- °F
Precip. -- in
Pressure 30.10 in
Visibility 10.0 miles
Clouds Clear
Dew Point 42 °F
Humidity 39%
Rainfall 0.00 in
Snow Depth Not available.
7:30 AM 5:37 PM
Waxing Crescent, 23% visible
METAR KAMA 231753Z 34007KT 310V010 10SM CLR 19/03 A3018 RMK AO2 SLP192 T01890033 10189 20083 58011
Pressure 30.10 in
Visibility 10.0 miles
Clouds Clear
Dew Point 42 °F
Humidity 39%
Rainfall 0.00 in
Snow Depth Not available.
7:30 AM 5:37 PM
Waxing Crescent, 23% visible
METAR KAMA 231753Z 34007KT 310V010 10SM CLR 19/03 A3018 RMK AO2 SLP192 T01890033 10189 20083 58011

Get Severe Weather Alerts

Thanks for signing up!

Be on the lookout for a verification email in your inbox.

You'll start receiving the daily forecast at 6 AM.

×

10-Day Weather Forecast

Almanac

Astronomy

Nov. 23, 2017 Rise Set
Actual Time
Civil Twilight
Nautical Twilight
Astronomical Twilight
Moon
Length of Visible Light
Length of Day
Tomorrow will be .
, % of the Moon is Illuminated

Today's Extremes

State Highs State Lows

Community

WunderPhotos

Category 6

Welcome to Category 6. This is the collective home for Weather Underground's featured writeups by Dr. Jeff Masters (right), Bob Henson (left), Chris Burt, and other regular contributors.

Nearby

Air Quality

  Air Quality AQ Index Pollutant
Not available.

Snow Depth

Station Depth Elevation

Earthquake Activity

City Distance Mag. Time & Date
Minimum magnitude displayed is 2.5.

Coastal Water Temperatures

Place Temperature

Stations

Nearby Weather Stations

Station Location Temp. Windchill Dew Point Humidity Wind Precip. Elev Updated Type
                   

Watches & Warnings

There are currently no watches in effect.